sensor_id;sensor_type;location;lat;lon;timestamp;P1;durP1;ratioP1;P2;durP2;ratioP2
31782;SDS011;18351;47.560;9.708;2023-04-29T00:00:02;2.53;;;2.10;;
31782;SDS011;18351;47.560;9.708;2023-04-29T00:02:31;2.05;;;1.85;;
31782;SDS011;18351;47.560;9.708;2023-04-29T00:04:57;2.10;;;1.88;;
31782;SDS011;18351;47.560;9.708;2023-04-29T00:07:23;1.95;;;1.70;;
31782;SDS011;18351;47.560;9.708;2023-04-29T00:09:48;2.95;;;1.60;;
31782;SDS011;18351;47.560;9.708;2023-04-29T00:12:14;3.20;;;1.52;;
31782;SDS011;18351;47.560;9.708;2023-04-29T00:14:39;2.80;;;1.65;;
31782;SDS011;18351;47.560;9.708;2023-04-29T00:17:07;2.05;;;1.73;;
31782;SDS011;18351;47.560;9.708;2023-04-29T00:19:32;7.10;;;2.10;;
31782;SDS011;18351;47.560;9.708;2023-04-29T00:21:58;2.15;;;1.63;;
31782;SDS011;18351;47.560;9.708;2023-04-29T00:24:24;1.83;;;1.65;;
31782;SDS011;18351;47.560;9.708;2023-04-29T00:26:49;1.55;;;1.42;;
31782;SDS011;18351;47.560;9.708;2023-04-29T00:29:15;2.20;;;1.70;;
31782;SDS011;18351;47.560;9.708;2023-04-29T00:31:41;3.67;;;1.30;;
31782;SDS011;18351;47.560;9.708;2023-04-29T00:34:06;2.45;;;1.45;;
31782;SDS011;18351;47.560;9.708;2023-04-29T00:36:32;1.90;;;1.58;;
31782;SDS011;18351;47.560;9.708;2023-04-29T00:38:58;4.97;;;1.73;;
31782;SDS011;18351;47.560;9.708;2023-04-29T00:41:23;2.30;;;1.80;;
31782;SDS011;18351;47.560;9.708;2023-04-29T00:43:49;1.63;;;1.52;;
31782;SDS011;18351;47.560;9.708;2023-04-29T00:46:16;2.47;;;1.58;;
31782;SDS011;18351;47.560;9.708;2023-04-29T00:48:42;1.65;;;1.55;;
31782;SDS011;18351;47.560;9.708;2023-04-29T00:51:07;2.15;;;1.77;;
31782;SDS011;18351;47.560;9.708;2023-04-29T00:53:33;3.00;;;1.67;;
31782;SDS011;18351;47.560;9.708;2023-04-29T00:56:00;1.60;;;1.35;;
31782;SDS011;18351;47.560;9.708;2023-04-29T00:58:28;2.55;;;1.50;;
31782;SDS011;18351;47.560;9.708;2023-04-29T01:00:56;2.08;;;1.83;;
31782;SDS011;18351;47.560;9.708;2023-04-29T01:03:22;2.00;;;1.80;;
31782;SDS011;18351;47.560;9.708;2023-04-29T01:05:48;2.75;;;1.77;;
31782;SDS011;18351;47.560;9.708;2023-04-29T01:11:12;1.60;;;1.50;;
31782;SDS011;18351;47.560;9.708;2023-04-29T01:13:48;2.05;;;1.50;;
31782;SDS011;18351;47.560;9.708;2023-04-29T01:16:36;1.60;;;1.50;;
31782;SDS011;18351;47.560;9.708;2023-04-29T01:19:19;2.13;;;1.65;;
31782;SDS011;18351;47.560;9.708;2023-04-29T01:21:50;2.00;;;1.75;;
31782;SDS011;18351;47.560;9.708;2023-04-29T01:24:16;3.13;;;1.67;;
31782;SDS011;18351;47.560;9.708;2023-04-29T01:26:43;3.20;;;2.13;;
31782;SDS011;18351;47.560;9.708;2023-04-29T01:31:44;2.42;;;2.20;;
31782;SDS011;18351;47.560;9.708;2023-04-29T01:34:23;3.17;;;2.03;;
31782;SDS011;18351;47.560;9.708;2023-04-29T01:37:06;4.05;;;2.38;;
31782;SDS011;18351;47.560;9.708;2023-04-29T01:39:47;1.95;;;1.75;;
31782;SDS011;18351;47.560;9.708;2023-04-29T01:42:39;5.07;;;2.30;;
31782;SDS011;18351;47.560;9.708;2023-04-29T01:45:15;3.47;;;2.28;;
31782;SDS011;18351;47.560;9.708;2023-04-29T01:47:42;2.30;;;1.70;;
31782;SDS011;18351;47.560;9.708;2023-04-29T01:50:10;4.35;;;2.30;;
31782;SDS011;18351;47.560;9.708;2023-04-29T01:52:36;3.63;;;1.95;;
31782;SDS011;18351;47.560;9.708;2023-04-29T01:55:01;4.32;;;2.03;;
31782;SDS011;18351;47.560;9.708;2023-04-29T01:57:27;5.47;;;2.13;;
31782;SDS011;18351;47.560;9.708;2023-04-29T01:59:53;2.63;;;1.77;;
31782;SDS011;18351;47.560;9.708;2023-04-29T02:02:18;2.30;;;2.00;;
31782;SDS011;18351;47.560;9.708;2023-04-29T02:04:47;3.55;;;2.00;;
31782;SDS011;18351;47.560;9.708;2023-04-29T02:07:13;2.22;;;1.70;;
31782;SDS011;18351;47.560;9.708;2023-04-29T02:09:39;4.07;;;1.88;;
31782;SDS011;18351;47.560;9.708;2023-04-29T02:12:04;2.92;;;1.80;;
31782;SDS011;18351;47.560;9.708;2023-04-29T02:14:30;6.05;;;2.28;;
31782;SDS011;18351;47.560;9.708;2023-04-29T02:16:56;2.58;;;1.88;;
31782;SDS011;18351;47.560;9.708;2023-04-29T02:19:21;2.88;;;1.98;;
31782;SDS011;18351;47.560;9.708;2023-04-29T02:21:47;2.00;;;1.70;;
31782;SDS011;18351;47.560;9.708;2023-04-29T02:24:12;3.40;;;1.83;;
31782;SDS011;18351;47.560;9.708;2023-04-29T02:26:38;2.38;;;2.00;;
31782;SDS011;18351;47.560;9.708;2023-04-29T02:29:03;2.60;;;1.90;;
31782;SDS011;18351;47.560;9.708;2023-04-29T02:31:29;2.47;;;1.83;;
31782;SDS011;18351;47.560;9.708;2023-04-29T02:33:54;4.05;;;1.60;;
31782;SDS011;18351;47.560;9.708;2023-04-29T02:36:20;2.55;;;1.88;;
31782;SDS011;18351;47.560;9.708;2023-04-29T02:38:46;1.75;;;1.50;;
31782;SDS011;18351;47.560;9.708;2023-04-29T02:41:17;4.25;;;2.00;;
31782;SDS011;18351;47.560;9.708;2023-04-29T02:43:43;2.45;;;1.75;;
31782;SDS011;18351;47.560;9.708;2023-04-29T02:46:08;2.80;;;1.65;;
31782;SDS011;18351;47.560;9.708;2023-04-29T02:48:34;3.08;;;1.70;;
31782;SDS011;18351;47.560;9.708;2023-04-29T02:51:00;3.70;;;1.83;;
31782;SDS011;18351;47.560;9.708;2023-04-29T02:53:26;6.18;;;1.90;;
31782;SDS011;18351;47.560;9.708;2023-04-29T02:55:51;3.20;;;1.98;;
31782;SDS011;18351;47.560;9.708;2023-04-29T02:58:17;9.18;;;2.35;;
31782;SDS011;18351;47.560;9.708;2023-04-29T03:00:43;3.10;;;1.83;;
31782;SDS011;18351;47.560;9.708;2023-04-29T03:03:08;4.10;;;1.80;;
31782;SDS011;18351;47.560;9.708;2023-04-29T03:05:34;3.97;;;2.55;;
31782;SDS011;18351;47.560;9.708;2023-04-29T03:08:00;3.42;;;2.15;;
31782;SDS011;18351;47.560;9.708;2023-04-29T03:10:26;3.25;;;1.95;;
31782;SDS011;18351;47.560;9.708;2023-04-29T03:12:52;2.35;;;1.95;;
31782;SDS011;18351;47.560;9.708;2023-04-29T03:15:17;3.10;;;2.00;;
31782;SDS011;18351;47.560;9.708;2023-04-29T03:17:43;2.03;;;1.80;;
31782;SDS011;18351;47.560;9.708;2023-04-29T03:20:10;2.00;;;1.77;;
31782;SDS011;18351;47.560;9.708;2023-04-29T03:22:36;4.75;;;2.03;;
31782;SDS011;18351;47.560;9.708;2023-04-29T03:25:01;3.20;;;1.80;;
31782;SDS011;18351;47.560;9.708;2023-04-29T03:27:27;1.98;;;1.67;;
31782;SDS011;18351;47.560;9.708;2023-04-29T03:29:53;2.33;;;1.77;;
31782;SDS011;18351;47.560;9.708;2023-04-29T03:32:18;2.40;;;1.90;;
31782;SDS011;18351;47.560;9.708;2023-04-29T03:34:44;3.67;;;1.90;;
31782;SDS011;18351;47.560;9.708;2023-04-29T03:37:09;2.38;;;1.98;;
31782;SDS011;18351;47.560;9.708;2023-04-29T03:39:35;2.47;;;1.65;;
31782;SDS011;18351;47.560;9.708;2023-04-29T03:42:01;1.77;;;1.67;;
31782;SDS011;18351;47.560;9.708;2023-04-29T03:44:26;1.58;;;1.48;;
31782;SDS011;18351;47.560;9.708;2023-04-29T03:46:53;1.80;;;1.70;;
31782;SDS011;18351;47.560;9.708;2023-04-29T03:49:18;3.60;;;2.15;;
31782;SDS011;18351;47.560;9.708;2023-04-29T03:51:44;1.55;;;1.45;;
31782;SDS011;18351;47.560;9.708;2023-04-29T03:54:10;3.22;;;1.90;;
31782;SDS011;18351;47.560;9.708;2023-04-29T03:56:37;1.85;;;1.60;;
31782;SDS011;18351;47.560;9.708;2023-04-29T03:59:02;2.45;;;1.70;;
31782;SDS011;18351;47.560;9.708;2023-04-29T04:01:28;2.10;;;1.85;;
31782;SDS011;18351;47.560;9.708;2023-04-29T04:03:53;1.80;;;1.70;;
31782;SDS011;18351;47.560;9.708;2023-04-29T04:06:19;3.47;;;2.38;;
31782;SDS011;18351;47.560;9.708;2023-04-29T04:08:45;2.05;;;1.60;;
31782;SDS011;18351;47.560;9.708;2023-04-29T04:11:10;4.15;;;2.00;;
31782;SDS011;18351;47.560;9.708;2023-04-29T04:13:39;2.22;;;1.80;;
31782;SDS011;18351;47.560;9.708;2023-04-29T04:16:08;2.15;;;1.70;;
31782;SDS011;18351;47.560;9.708;2023-04-29T04:18:34;3.55;;;1.58;;
31782;SDS011;18351;47.560;9.708;2023-04-29T04:21:06;3.05;;;1.80;;
31782;SDS011;18351;47.560;9.708;2023-04-29T04:23:33;2.00;;;1.88;;
31782;SDS011;18351;47.560;9.708;2023-04-29T04:25:58;2.20;;;2.00;;
31782;SDS011;18351;47.560;9.708;2023-04-29T04:28:24;1.73;;;1.60;;
31782;SDS011;18351;47.560;9.708;2023-04-29T04:30:50;1.80;;;1.60;;
31782;SDS011;18351;47.560;9.708;2023-04-29T04:33:15;2.35;;;1.42;;
31782;SDS011;18351;47.560;9.708;2023-04-29T04:35:41;2.67;;;1.75;;
31782;SDS011;18351;47.560;9.708;2023-04-29T04:38:07;1.80;;;1.58;;
31782;SDS011;18351;47.560;9.708;2023-04-29T04:40:35;1.63;;;1.40;;
31782;SDS011;18351;47.560;9.708;2023-04-29T04:43:00;2.33;;;1.60;;
31782;SDS011;18351;47.560;9.708;2023-04-29T04:45:29;4.00;;;1.60;;
31782;SDS011;18351;47.560;9.708;2023-04-29T04:47:55;1.40;;;1.30;;
31782;SDS011;18351;47.560;9.708;2023-04-29T04:50:20;1.73;;;1.50;;
31782;SDS011;18351;47.560;9.708;2023-04-29T04:52:46;1.73;;;1.60;;
31782;SDS011;18351;47.560;9.708;2023-04-29T04:55:12;1.95;;;1.45;;
31782;SDS011;18351;47.560;9.708;2023-04-29T04:57:37;2.30;;;1.38;;
31782;SDS011;18351;47.560;9.708;2023-04-29T05:00:03;1.90;;;1.58;;
31782;SDS011;18351;47.560;9.708;2023-04-29T05:02:29;1.75;;;1.45;;
31782;SDS011;18351;47.560;9.708;2023-04-29T05:04:54;2.40;;;1.40;;
31782;SDS011;18351;47.560;9.708;2023-04-29T05:07:20;1.65;;;1.20;;
31782;SDS011;18351;47.560;9.708;2023-04-29T05:09:46;2.28;;;1.40;;
31782;SDS011;18351;47.560;9.708;2023-04-29T05:12:11;2.03;;;1.42;;
31782;SDS011;18351;47.560;9.708;2023-04-29T05:14:37;2.33;;;1.40;;
31782;SDS011;18351;47.560;9.708;2023-04-29T05:17:02;4.47;;;1.40;;
31782;SDS011;18351;47.560;9.708;2023-04-29T05:19:28;1.30;;;1.20;;
31782;SDS011;18351;47.560;9.708;2023-04-29T05:21:53;1.95;;;1.48;;
31782;SDS011;18351;47.560;9.708;2023-04-29T05:24:19;2.45;;;1.30;;
31782;SDS011;18351;47.560;9.708;2023-04-29T05:26:44;2.45;;;1.40;;
31782;SDS011;18351;47.560;9.708;2023-04-29T05:29:11;2.95;;;1.40;;
31782;SDS011;18351;47.560;9.708;2023-04-29T05:31:36;1.20;;;1.10;;
31782;SDS011;18351;47.560;9.708;2023-04-29T05:34:03;4.63;;;1.90;;
31782;SDS011;18351;47.560;9.708;2023-04-29T05:36:29;3.15;;;1.25;;
31782;SDS011;18351;47.560;9.708;2023-04-29T05:38:55;3.63;;;2.80;;
31782;SDS011;18351;47.560;9.708;2023-04-29T05:41:21;2.42;;;1.63;;
31782;SDS011;18351;47.560;9.708;2023-04-29T05:43:48;1.48;;;1.27;;
31782;SDS011;18351;47.560;9.708;2023-04-29T05:46:14;1.50;;;1.25;;
31782;SDS011;18351;47.560;9.708;2023-04-29T05:48:40;2.53;;;1.50;;
31782;SDS011;18351;47.560;9.708;2023-04-29T05:51:06;2.03;;;1.40;;
31782;SDS011;18351;47.560;9.708;2023-04-29T05:53:31;1.70;;;1.60;;
31782;SDS011;18351;47.560;9.708;2023-04-29T05:55:57;2.90;;;2.60;;
31782;SDS011;18351;47.560;9.708;2023-04-29T05:58:23;3.53;;;3.20;;
31782;SDS011;18351;47.560;9.708;2023-04-29T06:00:49;10.15;;;1.48;;
31782;SDS011;18351;47.560;9.708;2023-04-29T06:03:15;1.27;;;1.08;;
31782;SDS011;18351;47.560;9.708;2023-04-29T06:05:41;3.42;;;0.90;;
31782;SDS011;18351;47.560;9.708;2023-04-29T06:08:06;1.67;;;1.58;;
31782;SDS011;18351;47.560;9.708;2023-04-29T06:10:32;1.27;;;1.00;;
31782;SDS011;18351;47.560;9.708;2023-04-29T06:12:58;1.52;;;1.20;;
31782;SDS011;18351;47.560;9.708;2023-04-29T06:15:23;2.15;;;1.20;;
31782;SDS011;18351;47.560;9.708;2023-04-29T06:17:49;0.80;;;0.80;;
31782;SDS011;18351;47.560;9.708;2023-04-29T06:20:16;2.20;;;1.35;;
31782;SDS011;18351;47.560;9.708;2023-04-29T06:22:41;3.83;;;1.10;;
31782;SDS011;18351;47.560;9.708;2023-04-29T06:25:07;2.00;;;1.45;;
31782;SDS011;18351;47.560;9.708;2023-04-29T06:27:33;2.03;;;1.40;;
31782;SDS011;18351;47.560;9.708;2023-04-29T06:29:58;2.25;;;1.65;;
31782;SDS011;18351;47.560;9.708;2023-04-29T06:32:24;2.65;;;1.35;;
31782;SDS011;18351;47.560;9.708;2023-04-29T06:34:49;1.90;;;0.98;;
31782;SDS011;18351;47.560;9.708;2023-04-29T06:37:15;1.17;;;1.00;;
31782;SDS011;18351;47.560;9.708;2023-04-29T06:39:40;2.08;;;1.50;;
31782;SDS011;18351;47.560;9.708;2023-04-29T06:42:06;1.83;;;1.00;;
31782;SDS011;18351;47.560;9.708;2023-04-29T06:44:32;1.23;;;1.05;;
31782;SDS011;18351;47.560;9.708;2023-04-29T06:46:57;1.80;;;0.90;;
31782;SDS011;18351;47.560;9.708;2023-04-29T06:49:23;1.10;;;1.00;;
31782;SDS011;18351;47.560;9.708;2023-04-29T06:51:48;1.20;;;1.10;;
31782;SDS011;18351;47.560;9.708;2023-04-29T06:54:14;2.03;;;1.10;;
31782;SDS011;18351;47.560;9.708;2023-04-29T06:56:39;3.03;;;1.20;;
31782;SDS011;18351;47.560;9.708;2023-04-29T06:59:05;1.27;;;1.00;;
31782;SDS011;18351;47.560;9.708;2023-04-29T07:01:31;1.30;;;0.95;;
31782;SDS011;18351;47.560;9.708;2023-04-29T07:03:56;2.50;;;1.02;;
31782;SDS011;18351;47.560;9.708;2023-04-29T07:06:22;4.25;;;1.27;;
31782;SDS011;18351;47.560;9.708;2023-04-29T07:08:47;1.15;;;1.05;;
31782;SDS011;18351;47.560;9.708;2023-04-29T07:11:13;2.40;;;1.42;;
31782;SDS011;18351;47.560;9.708;2023-04-29T07:13:39;2.70;;;1.45;;
31782;SDS011;18351;47.560;9.708;2023-04-29T07:16:05;1.67;;;1.48;;
31782;SDS011;18351;47.560;9.708;2023-04-29T07:18:40;2.38;;;1.40;;
31782;SDS011;18351;47.560;9.708;2023-04-29T07:21:05;1.85;;;1.45;;
31782;SDS011;18351;47.560;9.708;2023-04-29T07:23:32;2.83;;;1.55;;
31782;SDS011;18351;47.560;9.708;2023-04-29T07:25:57;1.52;;;1.38;;
31782;SDS011;18351;47.560;9.708;2023-04-29T07:28:23;3.88;;;1.40;;
31782;SDS011;18351;47.560;9.708;2023-04-29T07:30:48;2.20;;;1.20;;
31782;SDS011;18351;47.560;9.708;2023-04-29T07:33:14;2.38;;;1.20;;
31782;SDS011;18351;47.560;9.708;2023-04-29T07:35:41;2.67;;;1.60;;
31782;SDS011;18351;47.560;9.708;2023-04-29T07:38:08;2.95;;;1.73;;
31782;SDS011;18351;47.560;9.708;2023-04-29T07:40:34;1.50;;;1.40;;
31782;SDS011;18351;47.560;9.708;2023-04-29T07:42:59;2.13;;;1.30;;
31782;SDS011;18351;47.560;9.708;2023-04-29T07:45:28;1.58;;;1.35;;
31782;SDS011;18351;47.560;9.708;2023-04-29T07:47:54;2.88;;;1.35;;
31782;SDS011;18351;47.560;9.708;2023-04-29T07:50:20;1.58;;;1.40;;
31782;SDS011;18351;47.560;9.708;2023-04-29T07:52:46;2.85;;;1.58;;
31782;SDS011;18351;47.560;9.708;2023-04-29T07:55:12;2.33;;;1.20;;
31782;SDS011;18351;47.560;9.708;2023-04-29T07:57:37;1.55;;;1.20;;
31782;SDS011;18351;47.560;9.708;2023-04-29T08:00:03;1.60;;;1.30;;
31782;SDS011;18351;47.560;9.708;2023-04-29T08:02:29;2.45;;;1.60;;
31782;SDS011;18351;47.560;9.708;2023-04-29T08:04:54;2.88;;;1.30;;
31782;SDS011;18351;47.560;9.708;2023-04-29T08:07:20;2.30;;;1.20;;
31782;SDS011;18351;47.560;9.708;2023-04-29T08:09:45;2.20;;;1.30;;
31782;SDS011;18351;47.560;9.708;2023-04-29T08:12:11;3.47;;;1.42;;
31782;SDS011;18351;47.560;9.708;2023-04-29T08:14:36;3.08;;;1.70;;
31782;SDS011;18351;47.560;9.708;2023-04-29T08:17:02;3.22;;;1.20;;
31782;SDS011;18351;47.560;9.708;2023-04-29T08:19:27;2.60;;;1.70;;
31782;SDS011;18351;47.560;9.708;2023-04-29T08:21:53;1.45;;;1.17;;
31782;SDS011;18351;47.560;9.708;2023-04-29T08:24:18;3.20;;;1.17;;
31782;SDS011;18351;47.560;9.708;2023-04-29T08:26:46;2.33;;;1.27;;
31782;SDS011;18351;47.560;9.708;2023-04-29T08:29:12;1.17;;;1.08;;
31782;SDS011;18351;47.560;9.708;2023-04-29T08:31:37;1.38;;;1.25;;
31782;SDS011;18351;47.560;9.708;2023-04-29T08:34:03;3.85;;;1.42;;
31782;SDS011;18351;47.560;9.708;2023-04-29T08:36:28;1.40;;;1.30;;
31782;SDS011;18351;47.560;9.708;2023-04-29T08:38:54;1.50;;;1.40;;
31782;SDS011;18351;47.560;9.708;2023-04-29T08:41:20;1.52;;;1.30;;
31782;SDS011;18351;47.560;9.708;2023-04-29T08:43:45;2.55;;;0.98;;
31782;SDS011;18351;47.560;9.708;2023-04-29T08:46:11;3.95;;;1.70;;
31782;SDS011;18351;47.560;9.708;2023-04-29T08:48:37;2.97;;;1.27;;
31782;SDS011;18351;47.560;9.708;2023-04-29T08:51:04;1.92;;;1.55;;
31782;SDS011;18351;47.560;9.708;2023-04-29T08:53:30;1.83;;;1.40;;
31782;SDS011;18351;47.560;9.708;2023-04-29T08:55:57;1.02;;;0.93;;
31782;SDS011;18351;47.560;9.708;2023-04-29T08:58:28;1.85;;;1.05;;
31782;SDS011;18351;47.560;9.708;2023-04-29T09:00:56;3.70;;;1.50;;
31782;SDS011;18351;47.560;9.708;2023-04-29T09:03:26;1.10;;;0.95;;
31782;SDS011;18351;47.560;9.708;2023-04-29T09:05:58;4.78;;;1.20;;
31782;SDS011;18351;47.560;9.708;2023-04-29T09:08:25;1.38;;;1.10;;
31782;SDS011;18351;47.560;9.708;2023-04-29T09:10:51;1.98;;;1.33;;
31782;SDS011;18351;47.560;9.708;2023-04-29T09:13:27;0.80;;;0.80;;
31782;SDS011;18351;47.560;9.708;2023-04-29T09:15:54;2.75;;;1.38;;
31782;SDS011;18351;47.560;9.708;2023-04-29T09:21:14;3.50;;;1.95;;
31782;SDS011;18351;47.560;9.708;2023-04-29T09:23:45;2.65;;;1.15;;
31782;SDS011;18351;47.560;9.708;2023-04-29T09:26:12;1.30;;;1.10;;
31782;SDS011;18351;47.560;9.708;2023-04-29T09:28:38;2.28;;;1.23;;
31782;SDS011;18351;47.560;9.708;2023-04-29T09:31:10;0.95;;;0.90;;
31782;SDS011;18351;47.560;9.708;2023-04-29T09:33:48;1.05;;;0.90;;
31782;SDS011;18351;47.560;9.708;2023-04-29T09:36:13;1.20;;;0.98;;
31782;SDS011;18351;47.560;9.708;2023-04-29T09:38:52;1.67;;;1.00;;
31782;SDS011;18351;47.560;9.708;2023-04-29T09:41:22;1.42;;;1.10;;
31782;SDS011;18351;47.560;9.708;2023-04-29T09:43:59;1.23;;;0.85;;
31782;SDS011;18351;47.560;9.708;2023-04-29T09:46:33;1.45;;;0.80;;
31782;SDS011;18351;47.560;9.708;2023-04-29T09:49:00;2.35;;;1.13;;
31782;SDS011;18351;47.560;9.708;2023-04-29T09:51:27;2.33;;;1.02;;
31782;SDS011;18351;47.560;9.708;2023-04-29T09:53:52;1.23;;;1.10;;
31782;SDS011;18351;47.560;9.708;2023-04-29T09:56:18;2.53;;;1.17;;
31782;SDS011;18351;47.560;9.708;2023-04-29T09:58:43;1.10;;;0.90;;
31782;SDS011;18351;47.560;9.708;2023-04-29T10:01:09;2.25;;;1.00;;
31782;SDS011;18351;47.560;9.708;2023-04-29T10:03:37;1.00;;;0.98;;
31782;SDS011;18351;47.560;9.708;2023-04-29T10:06:04;3.70;;;1.17;;
31782;SDS011;18351;47.560;9.708;2023-04-29T10:08:31;1.20;;;1.10;;
31782;SDS011;18351;47.560;9.708;2023-04-29T10:10:58;1.30;;;0.80;;
31782;SDS011;18351;47.560;9.708;2023-04-29T10:13:28;2.00;;;1.15;;
31782;SDS011;18351;47.560;9.708;2023-04-29T10:18:43;4.47;;;1.17;;
31782;SDS011;18351;47.560;9.708;2023-04-29T10:21:16;1.92;;;0.90;;
31782;SDS011;18351;47.560;9.708;2023-04-29T10:23:46;3.45;;;0.88;;
31782;SDS011;18351;47.560;9.708;2023-04-29T10:26:14;1.30;;;1.13;;
31782;SDS011;18351;47.560;9.708;2023-04-29T10:28:42;1.10;;;0.85;;
31782;SDS011;18351;47.560;9.708;2023-04-29T10:31:10;1.23;;;1.02;;
31782;SDS011;18351;47.560;9.708;2023-04-29T10:33:38;1.70;;;1.30;;
31782;SDS011;18351;47.560;9.708;2023-04-29T10:36:07;1.70;;;1.13;;
31782;SDS011;18351;47.560;9.708;2023-04-29T10:38:35;4.60;;;1.20;;
31782;SDS011;18351;47.560;9.708;2023-04-29T10:41:09;1.60;;;1.48;;
31782;SDS011;18351;47.560;9.708;2023-04-29T10:43:43;1.10;;;1.00;;
31782;SDS011;18351;47.560;9.708;2023-04-29T10:48:47;1.40;;;1.25;;
31782;SDS011;18351;47.560;9.708;2023-04-29T10:51:31;1.33;;;1.20;;
31782;SDS011;18351;47.560;9.708;2023-04-29T10:56:49;1.30;;;1.20;;
31782;SDS011;18351;47.560;9.708;2023-04-29T10:59:20;1.50;;;1.40;;
31782;SDS011;18351;47.560;9.708;2023-04-29T11:01:51;4.20;;;1.50;;
31782;SDS011;18351;47.560;9.708;2023-04-29T11:04:18;3.13;;;1.60;;
31782;SDS011;18351;47.560;9.708;2023-04-29T11:06:52;2.03;;;1.30;;
31782;SDS011;18351;47.560;9.708;2023-04-29T11:09:27;1.35;;;1.02;;
31782;SDS011;18351;47.560;9.708;2023-04-29T11:11:57;3.75;;;1.50;;
31782;SDS011;18351;47.560;9.708;2023-04-29T11:14:25;2.47;;;1.20;;
31782;SDS011;18351;47.560;9.708;2023-04-29T11:16:58;2.67;;;1.55;;
31782;SDS011;18351;47.560;9.708;2023-04-29T11:19:29;1.23;;;1.13;;
31782;SDS011;18351;47.560;9.708;2023-04-29T11:22:03;2.30;;;1.25;;
31782;SDS011;18351;47.560;9.708;2023-04-29T11:24:36;1.38;;;1.10;;
31782;SDS011;18351;47.560;9.708;2023-04-29T11:27:21;4.10;;;1.20;;
31782;SDS011;18351;47.560;9.708;2023-04-29T11:29:50;2.47;;;1.25;;
31782;SDS011;18351;47.560;9.708;2023-04-29T11:32:25;1.75;;;1.17;;
31782;SDS011;18351;47.560;9.708;2023-04-29T11:35:14;3.42;;;1.10;;
31782;SDS011;18351;47.560;9.708;2023-04-29T11:37:42;1.73;;;1.10;;
31782;SDS011;18351;47.560;9.708;2023-04-29T11:40:09;0.90;;;0.90;;
31782;SDS011;18351;47.560;9.708;2023-04-29T11:42:40;5.20;;;0.98;;
31782;SDS011;18351;47.560;9.708;2023-04-29T11:45:13;2.47;;;0.93;;
31782;SDS011;18351;47.560;9.708;2023-04-29T11:47:42;0.80;;;0.80;;
31782;SDS011;18351;47.560;9.708;2023-04-29T11:50:11;1.27;;;1.00;;
31782;SDS011;18351;47.560;9.708;2023-04-29T11:52:39;1.45;;;0.95;;
31782;SDS011;18351;47.560;9.708;2023-04-29T11:55:08;1.45;;;0.90;;
31782;SDS011;18351;47.560;9.708;2023-04-29T11:57:35;3.22;;;1.05;;
31782;SDS011;18351;47.560;9.708;2023-04-29T12:00:02;1.73;;;1.20;;
31782;SDS011;18351;47.560;9.708;2023-04-29T12:02:31;1.65;;;0.95;;
31782;SDS011;18351;47.560;9.708;2023-04-29T12:04:58;5.95;;;1.33;;
31782;SDS011;18351;47.560;9.708;2023-04-29T12:07:27;1.75;;;1.10;;
31782;SDS011;18351;47.560;9.708;2023-04-29T12:09:53;0.90;;;0.90;;
31782;SDS011;18351;47.560;9.708;2023-04-29T12:12:20;1.20;;;0.98;;
31782;SDS011;18351;47.560;9.708;2023-04-29T12:14:46;4.70;;;1.60;;
31782;SDS011;18351;47.560;9.708;2023-04-29T12:17:12;3.40;;;1.10;;
31782;SDS011;18351;47.560;9.708;2023-04-29T12:19:38;2.35;;;1.10;;
31782;SDS011;18351;47.560;9.708;2023-04-29T12:22:04;1.13;;;0.77;;
31782;SDS011;18351;47.560;9.708;2023-04-29T12:24:34;1.63;;;0.90;;
31782;SDS011;18351;47.560;9.708;2023-04-29T12:27:01;1.30;;;0.80;;
31782;SDS011;18351;47.560;9.708;2023-04-29T12:29:26;1.55;;;0.80;;
31782;SDS011;18351;47.560;9.708;2023-04-29T12:31:52;2.47;;;0.77;;
31782;SDS011;18351;47.560;9.708;2023-04-29T12:34:23;0.77;;;0.73;;
31782;SDS011;18351;47.560;9.708;2023-04-29T12:36:50;0.88;;;0.65;;
31782;SDS011;18351;47.560;9.708;2023-04-29T12:39:19;2.15;;;0.77;;
31782;SDS011;18351;47.560;9.708;2023-04-29T12:41:45;1.60;;;1.13;;
31782;SDS011;18351;47.560;9.708;2023-04-29T12:44:10;0.70;;;0.70;;
31782;SDS011;18351;47.560;9.708;2023-04-29T12:46:36;1.80;;;0.80;;
31782;SDS011;18351;47.560;9.708;2023-04-29T12:49:03;1.50;;;0.80;;
31782;SDS011;18351;47.560;9.708;2023-04-29T12:51:33;0.85;;;0.77;;
31782;SDS011;18351;47.560;9.708;2023-04-29T12:54:03;0.63;;;0.63;;
31782;SDS011;18351;47.560;9.708;2023-04-29T12:56:31;1.25;;;0.70;;
31782;SDS011;18351;47.560;9.708;2023-04-29T12:59:03;1.15;;;0.90;;
31782;SDS011;18351;47.560;9.708;2023-04-29T13:01:31;5.95;;;1.02;;
31782;SDS011;18351;47.560;9.708;2023-04-29T13:03:57;1.55;;;0.80;;
31782;SDS011;18351;47.560;9.708;2023-04-29T13:06:22;1.27;;;0.73;;
31782;SDS011;18351;47.560;9.708;2023-04-29T13:08:48;1.52;;;0.93;;
31782;SDS011;18351;47.560;9.708;2023-04-29T13:11:15;0.80;;;0.80;;
31782;SDS011;18351;47.560;9.708;2023-04-29T13:13:41;1.88;;;0.60;;
31782;SDS011;18351;47.560;9.708;2023-04-29T13:16:06;0.95;;;0.68;;
31782;SDS011;18351;47.560;9.708;2023-04-29T13:18:32;1.63;;;0.73;;
31782;SDS011;18351;47.560;9.708;2023-04-29T13:20:58;0.95;;;0.80;;
31782;SDS011;18351;47.560;9.708;2023-04-29T13:23:23;2.15;;;0.80;;
31782;SDS011;18351;47.560;9.708;2023-04-29T13:25:49;1.40;;;0.70;;
31782;SDS011;18351;47.560;9.708;2023-04-29T13:28:15;1.08;;;0.60;;
31782;SDS011;18351;47.560;9.708;2023-04-29T13:30:40;1.13;;;1.02;;
31782;SDS011;18351;47.560;9.708;2023-04-29T13:33:06;1.85;;;0.98;;
31782;SDS011;18351;47.560;9.708;2023-04-29T13:35:32;1.33;;;0.70;;
31782;SDS011;18351;47.560;9.708;2023-04-29T13:38:00;3.85;;;1.10;;
31782;SDS011;18351;47.560;9.708;2023-04-29T13:40:26;0.40;;;0.40;;
31782;SDS011;18351;47.560;9.708;2023-04-29T13:42:51;2.00;;;0.73;;
31782;SDS011;18351;47.560;9.708;2023-04-29T13:45:17;0.57;;;0.57;;
31782;SDS011;18351;47.560;9.708;2023-04-29T13:47:43;1.95;;;0.75;;
31782;SDS011;18351;47.560;9.708;2023-04-29T13:50:08;1.00;;;0.88;;
31782;SDS011;18351;47.560;9.708;2023-04-29T13:52:34;4.15;;;0.80;;
31782;SDS011;18351;47.560;9.708;2023-04-29T13:55:00;2.35;;;0.93;;
31782;SDS011;18351;47.560;9.708;2023-04-29T13:57:25;0.63;;;0.60;;
31782;SDS011;18351;47.560;9.708;2023-04-29T13:59:51;3.53;;;0.70;;
31782;SDS011;18351;47.560;9.708;2023-04-29T14:02:19;1.23;;;0.80;;
31782;SDS011;18351;47.560;9.708;2023-04-29T14:04:45;3.50;;;1.42;;
31782;SDS011;18351;47.560;9.708;2023-04-29T14:07:11;0.73;;;0.63;;
31782;SDS011;18351;47.560;9.708;2023-04-29T14:09:38;4.05;;;0.85;;
31782;SDS011;18351;47.560;9.708;2023-04-29T14:12:04;0.82;;;0.68;;
31782;SDS011;18351;47.560;9.708;2023-04-29T14:14:29;1.15;;;0.73;;
31782;SDS011;18351;47.560;9.708;2023-04-29T14:16:55;0.80;;;0.80;;
31782;SDS011;18351;47.560;9.708;2023-04-29T14:19:21;1.08;;;0.68;;
31782;SDS011;18351;47.560;9.708;2023-04-29T14:21:47;0.82;;;0.82;;
31782;SDS011;18351;47.560;9.708;2023-04-29T14:24:12;0.90;;;0.80;;
31782;SDS011;18351;47.560;9.708;2023-04-29T14:26:38;1.17;;;0.80;;
31782;SDS011;18351;47.560;9.708;2023-04-29T14:29:03;1.17;;;0.93;;
31782;SDS011;18351;47.560;9.708;2023-04-29T14:31:29;1.55;;;0.90;;
31782;SDS011;18351;47.560;9.708;2023-04-29T14:33:59;3.22;;;1.00;;
31782;SDS011;18351;47.560;9.708;2023-04-29T14:36:25;2.60;;;1.20;;
31782;SDS011;18351;47.560;9.708;2023-04-29T14:38:52;1.88;;;0.88;;
31782;SDS011;18351;47.560;9.708;2023-04-29T14:41:18;2.63;;;0.93;;
31782;SDS011;18351;47.560;9.708;2023-04-29T14:43:45;2.60;;;1.20;;
31782;SDS011;18351;47.560;9.708;2023-04-29T14:46:11;0.85;;;0.80;;
31782;SDS011;18351;47.560;9.708;2023-04-29T14:48:37;1.55;;;1.20;;
31782;SDS011;18351;47.560;9.708;2023-04-29T14:51:02;1.65;;;1.00;;
31782;SDS011;18351;47.560;9.708;2023-04-29T14:53:28;1.92;;;0.95;;
31782;SDS011;18351;47.560;9.708;2023-04-29T14:55:54;2.85;;;0.90;;
31782;SDS011;18351;47.560;9.708;2023-04-29T14:58:19;2.60;;;1.13;;
31782;SDS011;18351;47.560;9.708;2023-04-29T15:00:45;1.38;;;0.93;;
31782;SDS011;18351;47.560;9.708;2023-04-29T15:03:11;1.67;;;0.93;;